createdAt,value
2016-08-26T00:01:51.506Z,19.1
2016-08-26T00:16:51.531Z,19
2016-08-26T00:31:51.517Z,18.9
2016-08-26T00:46:51.518Z,19
2016-08-26T01:01:57.750Z,19
2016-08-26T01:16:56.189Z,18.9
2016-08-26T01:31:57.757Z,19.2
2016-08-26T01:46:51.534Z,19.4
2016-08-26T02:01:58.151Z,19.6
2016-08-26T02:16:51.547Z,19.5
2016-08-26T02:31:51.590Z,19.4
2016-08-26T02:46:56.149Z,19.4
2016-08-26T03:01:58.166Z,19.3
2016-08-26T03:16:52.363Z,19.3
2016-08-26T03:31:51.591Z,19.3
2016-08-26T03:46:58.153Z,19.5
2016-08-26T04:01:58.178Z,19.8
2016-08-26T04:16:57.774Z,19.9
2016-08-26T04:31:51.799Z,20.2
2016-08-26T04:46:51.557Z,20.4
2016-08-26T05:01:51.565Z,20.7
2016-08-26T05:16:59.687Z,20.9
2016-08-26T05:31:51.600Z,21.2
2016-08-26T05:46:56.511Z,21.4
2016-08-26T06:01:51.568Z,21.5
2016-08-26T06:16:51.564Z,21.6
2016-08-26T06:31:57.919Z,21.8
2016-08-26T06:46:51.600Z,21.9
2016-08-26T07:01:56.175Z,22
2016-08-26T07:16:51.580Z,22.2
2016-08-26T07:31:51.574Z,22.9
2016-08-26T07:46:51.612Z,23.3
2016-08-26T08:01:51.572Z,23.7
2016-08-26T08:16:54.515Z,23.9
2016-08-26T08:31:53.698Z,24.2
2016-08-26T08:46:56.678Z,24.6
2016-08-26T09:01:53.604Z,24.9
2016-08-26T09:16:59.911Z,25.9
2016-08-26T09:32:02.843Z,28.9
2016-08-26T09:46:51.581Z,30.2
2016-08-26T10:01:55.746Z,30
2016-08-26T10:16:54.538Z,30.1
2016-08-26T10:32:02.027Z,29.9
2016-08-26T10:46:51.589Z,30
2016-08-26T11:01:57.852Z,30.3
2016-08-26T11:16:57.805Z,30.5
2016-08-26T11:31:57.904Z,31.2
2016-08-26T11:46:51.592Z,32
2016-08-26T12:01:51.594Z,32.2
2016-08-26T12:16:51.629Z,32.2
2016-08-26T12:31:51.595Z,32.3
2016-08-26T12:46:55.706Z,31.9
2016-08-26T13:01:55.703Z,31.9
2016-08-26T13:16:51.670Z,31.9
2016-08-26T13:31:51.599Z,31.9
2016-08-26T13:46:51.631Z,31.8
2016-08-26T14:01:51.612Z,32.2
2016-08-26T14:16:51.662Z,32.5
2016-08-26T14:31:53.623Z,32.5
2016-08-26T14:46:53.750Z,32.5
2016-08-26T15:01:53.735Z,32.7
2016-08-26T15:16:53.800Z,32.9
2016-08-26T15:32:07.198Z,32.8
2016-08-26T15:46:57.850Z,32.6
2016-08-26T16:01:59.510Z,32.5
2016-08-26T16:16:58.726Z,32.1
2016-08-26T16:31:57.957Z,31.9
2016-08-26T16:46:56.685Z,31.6
2016-08-26T17:01:55.755Z,31.4
2016-08-26T17:16:53.655Z,31
2016-08-26T17:31:56.653Z,30.7
2016-08-26T17:46:53.791Z,30.3
2016-08-26T18:01:57.981Z,29.7
2016-08-26T18:16:57.989Z,26.2
2016-08-26T18:31:51.678Z,25
2016-08-26T18:46:55.945Z,24.7
2016-08-26T19:01:55.889Z,24.4
2016-08-26T19:17:00.940Z,24.2
2016-08-26T19:32:02.720Z,24
2016-08-26T19:46:51.688Z,23.9
2016-08-26T20:01:55.962Z,23.9
2016-08-26T20:17:02.846Z,23.8
2016-08-26T20:32:00.939Z,23.7
2016-08-26T20:46:51.684Z,23.5
2016-08-26T21:01:51.689Z,23.4
2016-08-26T21:16:51.778Z,23.3
2016-08-26T21:31:51.689Z,23
2016-08-26T21:46:51.688Z,22.9
2016-08-26T22:01:51.695Z,22.7
2016-08-26T22:16:56.770Z,22.4
2016-08-26T22:32:02.127Z,22
2016-08-26T22:46:58.301Z,21.7
2016-08-26T23:01:51.716Z,21.5
2016-08-26T23:16:51.712Z,21.3
2016-08-26T23:31:51.766Z,21.1
2016-08-26T23:46:51.757Z,20.9
